sensor_id;sensor_type;location;lat;lon;timestamp;P1;durP1;ratioP1;P2;durP2;ratioP2
36353;SDS011;22383;51.114;13.666;2023-11-22T00:02:17;51.45;;;19.52;;
36353;SDS011;22383;51.114;13.666;2023-11-22T00:04:45;45.22;;;17.95;;
36353;SDS011;22383;51.114;13.666;2023-11-22T00:07:13;47.33;;;19.10;;
36353;SDS011;22383;51.114;13.666;2023-11-22T00:09:40;49.67;;;18.17;;
36353;SDS011;22383;51.114;13.666;2023-11-22T00:12:09;46.40;;;18.50;;
36353;SDS011;22383;51.114;13.666;2023-11-22T00:14:37;46.60;;;18.67;;
36353;SDS011;22383;51.114;13.666;2023-11-22T00:17:04;48.47;;;19.20;;
36353;SDS011;22383;51.114;13.666;2023-11-22T00:19:32;44.08;;;17.27;;
36353;SDS011;22383;51.114;13.666;2023-11-22T00:21:59;42.20;;;18.98;;
36353;SDS011;22383;51.114;13.666;2023-11-22T00:24:26;44.85;;;19.00;;
36353;SDS011;22383;51.114;13.666;2023-11-22T00:26:54;42.72;;;16.63;;
36353;SDS011;22383;51.114;13.666;2023-11-22T00:29:21;38.20;;;16.92;;
36353;SDS011;22383;51.114;13.666;2023-11-22T00:31:48;49.22;;;19.10;;
36353;SDS011;22383;51.114;13.666;2023-11-22T00:34:16;44.45;;;18.50;;
36353;SDS011;22383;51.114;13.666;2023-11-22T00:36:47;39.22;;;15.93;;
36353;SDS011;22383;51.114;13.666;2023-11-22T00:39:17;42.08;;;16.98;;
36353;SDS011;22383;51.114;13.666;2023-11-22T00:41:44;41.20;;;17.90;;
36353;SDS011;22383;51.114;13.666;2023-11-22T00:46:39;40.03;;;16.23;;
36353;SDS011;22383;51.114;13.666;2023-11-22T00:49:06;41.20;;;18.15;;
36353;SDS011;22383;51.114;13.666;2023-11-22T00:51:35;39.63;;;17.75;;
36353;SDS011;22383;51.114;13.666;2023-11-22T00:54:02;46.50;;;18.58;;
36353;SDS011;22383;51.114;13.666;2023-11-22T00:56:30;40.70;;;17.15;;
36353;SDS011;22383;51.114;13.666;2023-11-22T00:58:57;43.63;;;18.95;;
36353;SDS011;22383;51.114;13.666;2023-11-22T01:01:27;40.72;;;17.08;;
36353;SDS011;22383;51.114;13.666;2023-11-22T01:03:54;37.47;;;16.08;;
36353;SDS011;22383;51.114;13.666;2023-11-22T01:06:22;38.85;;;16.52;;
36353;SDS011;22383;51.114;13.666;2023-11-22T01:08:50;44.03;;;17.13;;
36353;SDS011;22383;51.114;13.666;2023-11-22T01:13:45;39.40;;;16.15;;
36353;SDS011;22383;51.114;13.666;2023-11-22T01:16:13;43.33;;;17.42;;
36353;SDS011;22383;51.114;13.666;2023-11-22T01:18:40;52.05;;;17.42;;
36353;SDS011;22383;51.114;13.666;2023-11-22T01:21:12;42.00;;;16.75;;
36353;SDS011;22383;51.114;13.666;2023-11-22T01:26:07;46.60;;;16.42;;
36353;SDS011;22383;51.114;13.666;2023-11-22T01:28:34;42.42;;;16.48;;
36353;SDS011;22383;51.114;13.666;2023-11-22T01:31:02;40.35;;;17.25;;
36353;SDS011;22383;51.114;13.666;2023-11-22T01:33:30;46.28;;;16.55;;
36353;SDS011;22383;51.114;13.666;2023-11-22T01:35:59;42.92;;;17.30;;
36353;SDS011;22383;51.114;13.666;2023-11-22T01:38:26;44.65;;;16.08;;
36353;SDS011;22383;51.114;13.666;2023-11-22T01:40:54;45.25;;;16.58;;
36353;SDS011;22383;51.114;13.666;2023-11-22T01:43:21;39.08;;;16.73;;
36353;SDS011;22383;51.114;13.666;2023-11-22T01:45:51;40.30;;;17.00;;
36353;SDS011;22383;51.114;13.666;2023-11-22T01:48:18;45.78;;;18.20;;
36353;SDS011;22383;51.114;13.666;2023-11-22T01:50:46;41.30;;;17.60;;
36353;SDS011;22383;51.114;13.666;2023-11-22T01:53:13;40.47;;;16.13;;
36353;SDS011;22383;51.114;13.666;2023-11-22T01:55:43;38.38;;;16.17;;
36353;SDS011;22383;51.114;13.666;2023-11-22T01:58:12;42.58;;;16.50;;
36353;SDS011;22383;51.114;13.666;2023-11-22T02:03:16;33.75;;;15.43;;
36353;SDS011;22383;51.114;13.666;2023-11-22T02:05:44;45.22;;;15.90;;
36353;SDS011;22383;51.114;13.666;2023-11-22T02:08:12;42.00;;;15.82;;
36353;SDS011;22383;51.114;13.666;2023-11-22T02:10:40;47.30;;;16.38;;
36353;SDS011;22383;51.114;13.666;2023-11-22T02:13:08;44.28;;;16.75;;
36353;SDS011;22383;51.114;13.666;2023-11-22T02:15:37;45.63;;;18.60;;
36353;SDS011;22383;51.114;13.666;2023-11-22T02:18:04;42.13;;;16.20;;
36353;SDS011;22383;51.114;13.666;2023-11-22T02:20:40;44.05;;;16.98;;
36353;SDS011;22383;51.114;13.666;2023-11-22T02:23:10;37.42;;;15.07;;
36353;SDS011;22383;51.114;13.666;2023-11-22T02:25:38;33.58;;;15.38;;
36353;SDS011;22383;51.114;13.666;2023-11-22T02:28:06;36.35;;;15.32;;
36353;SDS011;22383;51.114;13.666;2023-11-22T02:30:35;37.05;;;14.25;;
36353;SDS011;22383;51.114;13.666;2023-11-22T02:33:03;37.92;;;15.20;;
36353;SDS011;22383;51.114;13.666;2023-11-22T02:35:34;38.50;;;15.90;;
36353;SDS011;22383;51.114;13.666;2023-11-22T02:38:01;44.78;;;16.33;;
36353;SDS011;22383;51.114;13.666;2023-11-22T02:40:29;37.25;;;14.38;;
36353;SDS011;22383;51.114;13.666;2023-11-22T02:42:56;39.15;;;16.20;;
36353;SDS011;22383;51.114;13.666;2023-11-22T02:45:27;35.22;;;14.45;;
36353;SDS011;22383;51.114;13.666;2023-11-22T02:47:55;32.25;;;13.40;;
36353;SDS011;22383;51.114;13.666;2023-11-22T02:50:23;37.95;;;15.90;;
36353;SDS011;22383;51.114;13.666;2023-11-22T02:52:50;34.22;;;16.70;;
36353;SDS011;22383;51.114;13.666;2023-11-22T02:55:17;32.42;;;13.68;;
36353;SDS011;22383;51.114;13.666;2023-11-22T02:57:46;40.38;;;14.57;;
36353;SDS011;22383;51.114;13.666;2023-11-22T03:00:13;41.38;;;17.38;;
36353;SDS011;22383;51.114;13.666;2023-11-22T03:02:41;39.75;;;15.25;;
36353;SDS011;22383;51.114;13.666;2023-11-22T03:05:09;35.13;;;14.90;;
36353;SDS011;22383;51.114;13.666;2023-11-22T03:07:37;32.90;;;14.50;;
36353;SDS011;22383;51.114;13.666;2023-11-22T03:12:31;36.33;;;14.65;;
36353;SDS011;22383;51.114;13.666;2023-11-22T03:15:08;47.57;;;15.67;;
36353;SDS011;22383;51.114;13.666;2023-11-22T03:17:36;36.30;;;13.52;;
36353;SDS011;22383;51.114;13.666;2023-11-22T03:20:05;42.92;;;15.38;;
36353;SDS011;22383;51.114;13.666;2023-11-22T03:22:38;32.15;;;13.80;;
36353;SDS011;22383;51.114;13.666;2023-11-22T03:25:07;43.67;;;16.73;;
36353;SDS011;22383;51.114;13.666;2023-11-22T03:27:37;37.88;;;15.32;;
36353;SDS011;22383;51.114;13.666;2023-11-22T03:30:05;39.58;;;16.10;;
36353;SDS011;22383;51.114;13.666;2023-11-22T03:32:35;37.75;;;15.27;;
36353;SDS011;22383;51.114;13.666;2023-11-22T03:35:07;37.90;;;14.63;;
36353;SDS011;22383;51.114;13.666;2023-11-22T03:37:37;32.42;;;13.55;;
36353;SDS011;22383;51.114;13.666;2023-11-22T03:40:04;39.35;;;15.10;;
36353;SDS011;22383;51.114;13.666;2023-11-22T03:42:32;43.88;;;17.00;;
36353;SDS011;22383;51.114;13.666;2023-11-22T03:44:59;48.28;;;14.88;;
36353;SDS011;22383;51.114;13.666;2023-11-22T03:47:26;36.97;;;15.88;;
36353;SDS011;22383;51.114;13.666;2023-11-22T03:49:54;43.00;;;16.50;;
36353;SDS011;22383;51.114;13.666;2023-11-22T03:52:21;35.10;;;15.30;;
36353;SDS011;22383;51.114;13.666;2023-11-22T03:54:49;41.90;;;18.30;;
36353;SDS011;22383;51.114;13.666;2023-11-22T03:57:16;38.17;;;15.70;;
36353;SDS011;22383;51.114;13.666;2023-11-22T03:59:43;36.88;;;15.52;;
36353;SDS011;22383;51.114;13.666;2023-11-22T04:02:11;42.78;;;16.13;;
36353;SDS011;22383;51.114;13.666;2023-11-22T04:04:38;38.53;;;16.75;;
36353;SDS011;22383;51.114;13.666;2023-11-22T04:07:07;36.80;;;15.45;;
36353;SDS011;22383;51.114;13.666;2023-11-22T04:09:34;39.63;;;17.02;;
36353;SDS011;22383;51.114;13.666;2023-11-22T04:12:02;40.92;;;17.25;;
36353;SDS011;22383;51.114;13.666;2023-11-22T04:14:31;41.85;;;16.85;;
36353;SDS011;22383;51.114;13.666;2023-11-22T04:16:58;45.83;;;18.45;;
36353;SDS011;22383;51.114;13.666;2023-11-22T04:24:21;40.40;;;16.65;;
36353;SDS011;22383;51.114;13.666;2023-11-22T04:26:48;43.22;;;17.00;;
36353;SDS011;22383;51.114;13.666;2023-11-22T04:29:15;46.50;;;18.75;;
36353;SDS011;22383;51.114;13.666;2023-11-22T04:31:43;37.72;;;16.02;;
36353;SDS011;22383;51.114;13.666;2023-11-22T04:34:11;44.00;;;17.02;;
36353;SDS011;22383;51.114;13.666;2023-11-22T04:36:38;46.35;;;18.27;;
36353;SDS011;22383;51.114;13.666;2023-11-22T04:39:05;39.03;;;17.40;;
36353;SDS011;22383;51.114;13.666;2023-11-22T04:41:34;42.25;;;18.38;;
36353;SDS011;22383;51.114;13.666;2023-11-22T04:44:02;39.17;;;17.45;;
36353;SDS011;22383;51.114;13.666;2023-11-22T04:46:29;51.25;;;19.40;;
36353;SDS011;22383;51.114;13.666;2023-11-22T04:48:57;38.03;;;15.57;;
36353;SDS011;22383;51.114;13.666;2023-11-22T04:51:24;40.60;;;17.67;;
36353;SDS011;22383;51.114;13.666;2023-11-22T04:53:51;38.53;;;15.73;;
36353;SDS011;22383;51.114;13.666;2023-11-22T04:56:19;39.47;;;15.98;;
36353;SDS011;22383;51.114;13.666;2023-11-22T04:58:46;41.35;;;17.65;;
36353;SDS011;22383;51.114;13.666;2023-11-22T05:01:13;39.00;;;16.65;;
36353;SDS011;22383;51.114;13.666;2023-11-22T05:03:44;47.17;;;16.60;;
36353;SDS011;22383;51.114;13.666;2023-11-22T05:06:11;41.00;;;17.88;;
36353;SDS011;22383;51.114;13.666;2023-11-22T05:08:39;49.00;;;17.67;;
36353;SDS011;22383;51.114;13.666;2023-11-22T05:11:06;49.53;;;19.80;;
36353;SDS011;22383;51.114;13.666;2023-11-22T05:13:34;47.05;;;19.65;;
36353;SDS011;22383;51.114;13.666;2023-11-22T05:16:02;47.58;;;19.17;;
36353;SDS011;22383;51.114;13.666;2023-11-22T05:18:30;40.67;;;17.67;;
36353;SDS011;22383;51.114;13.666;2023-11-22T05:20:57;41.05;;;18.77;;
36353;SDS011;22383;51.114;13.666;2023-11-22T05:23:24;49.65;;;21.10;;
36353;SDS011;22383;51.114;13.666;2023-11-22T05:25:52;50.58;;;18.38;;
36353;SDS011;22383;51.114;13.666;2023-11-22T05:28:19;41.40;;;17.08;;
36353;SDS011;22383;51.114;13.666;2023-11-22T05:30:46;42.17;;;18.40;;
36353;SDS011;22383;51.114;13.666;2023-11-22T05:33:13;49.10;;;18.35;;
36353;SDS011;22383;51.114;13.666;2023-11-22T05:35:41;44.13;;;16.73;;
36353;SDS011;22383;51.114;13.666;2023-11-22T05:38:08;46.85;;;17.25;;
36353;SDS011;22383;51.114;13.666;2023-11-22T05:40:35;40.47;;;18.35;;
36353;SDS011;22383;51.114;13.666;2023-11-22T05:43:05;45.63;;;18.60;;
36353;SDS011;22383;51.114;13.666;2023-11-22T05:45:38;43.50;;;18.25;;
36353;SDS011;22383;51.114;13.666;2023-11-22T05:48:06;37.35;;;16.98;;
36353;SDS011;22383;51.114;13.666;2023-11-22T05:50:33;38.40;;;16.17;;
36353;SDS011;22383;51.114;13.666;2023-11-22T05:53:00;52.35;;;18.33;;
36353;SDS011;22383;51.114;13.666;2023-11-22T05:55:27;51.90;;;20.48;;
36353;SDS011;22383;51.114;13.666;2023-11-22T05:57:56;36.13;;;16.70;;
36353;SDS011;22383;51.114;13.666;2023-11-22T06:00:23;40.30;;;18.42;;
36353;SDS011;22383;51.114;13.666;2023-11-22T06:02:50;45.90;;;17.80;;
36353;SDS011;22383;51.114;13.666;2023-11-22T06:05:19;49.42;;;19.42;;
36353;SDS011;22383;51.114;13.666;2023-11-22T06:07:47;48.05;;;19.55;;
36353;SDS011;22383;51.114;13.666;2023-11-22T06:12:46;39.42;;;17.33;;
36353;SDS011;22383;51.114;13.666;2023-11-22T06:15:20;45.67;;;17.63;;
36353;SDS011;22383;51.114;13.666;2023-11-22T06:17:59;45.42;;;18.77;;
36353;SDS011;22383;51.114;13.666;2023-11-22T06:20:26;45.75;;;18.20;;
36353;SDS011;22383;51.114;13.666;2023-11-22T06:22:54;44.88;;;18.00;;
36353;SDS011;22383;51.114;13.666;2023-11-22T06:25:21;48.47;;;19.40;;
36353;SDS011;22383;51.114;13.666;2023-11-22T06:27:49;48.00;;;19.85;;
36353;SDS011;22383;51.114;13.666;2023-11-22T06:30:16;44.83;;;17.48;;
36353;SDS011;22383;51.114;13.666;2023-11-22T06:35:11;47.10;;;18.50;;
36353;SDS011;22383;51.114;13.666;2023-11-22T06:37:41;41.55;;;18.27;;
36353;SDS011;22383;51.114;13.666;2023-11-22T06:40:09;46.20;;;18.50;;
36353;SDS011;22383;51.114;13.666;2023-11-22T06:42:39;50.25;;;19.98;;
36353;SDS011;22383;51.114;13.666;2023-11-22T06:45:07;40.00;;;19.25;;
36353;SDS011;22383;51.114;13.666;2023-11-22T06:47:39;44.80;;;19.85;;
36353;SDS011;22383;51.114;13.666;2023-11-22T06:50:07;46.50;;;18.38;;
36353;SDS011;22383;51.114;13.666;2023-11-22T06:52:39;53.95;;;19.77;;
36353;SDS011;22383;51.114;13.666;2023-11-22T06:55:08;47.60;;;19.55;;
36353;SDS011;22383;51.114;13.666;2023-11-22T06:57:36;43.15;;;17.08;;
36353;SDS011;22383;51.114;13.666;2023-11-22T07:00:04;43.92;;;19.08;;
36353;SDS011;22383;51.114;13.666;2023-11-22T07:02:32;43.85;;;19.73;;
36353;SDS011;22383;51.114;13.666;2023-11-22T07:05:00;46.25;;;19.20;;
36353;SDS011;22383;51.114;13.666;2023-11-22T07:07:28;44.22;;;17.20;;
36353;SDS011;22383;51.114;13.666;2023-11-22T07:09:56;39.97;;;16.00;;
36353;SDS011;22383;51.114;13.666;2023-11-22T07:12:26;38.63;;;14.75;;
36353;SDS011;22383;51.114;13.666;2023-11-22T07:14:54;44.70;;;16.80;;
36353;SDS011;22383;51.114;13.666;2023-11-22T07:17:22;41.78;;;17.02;;
36353;SDS011;22383;51.114;13.666;2023-11-22T07:19:49;52.28;;;18.00;;
36353;SDS011;22383;51.114;13.666;2023-11-22T07:22:18;39.88;;;15.80;;
36353;SDS011;22383;51.114;13.666;2023-11-22T07:24:46;40.17;;;16.95;;
36353;SDS011;22383;51.114;13.666;2023-11-22T07:27:21;45.22;;;17.13;;
36353;SDS011;22383;51.114;13.666;2023-11-22T07:29:49;39.53;;;17.23;;
36353;SDS011;22383;51.114;13.666;2023-11-22T07:32:19;42.53;;;16.70;;
36353;SDS011;22383;51.114;13.666;2023-11-22T07:34:47;47.90;;;17.92;;
36353;SDS011;22383;51.114;13.666;2023-11-22T07:37:15;41.85;;;17.10;;
36353;SDS011;22383;51.114;13.666;2023-11-22T07:39:43;44.22;;;16.83;;
36353;SDS011;22383;51.114;13.666;2023-11-22T07:42:11;39.53;;;17.00;;
36353;SDS011;22383;51.114;13.666;2023-11-22T07:44:38;44.50;;;18.92;;
36353;SDS011;22383;51.114;13.666;2023-11-22T07:47:06;49.65;;;18.80;;
36353;SDS011;22383;51.114;13.666;2023-11-22T07:49:38;43.58;;;18.67;;
36353;SDS011;22383;51.114;13.666;2023-11-22T07:52:06;47.35;;;18.15;;
36353;SDS011;22383;51.114;13.666;2023-11-22T07:57:02;42.80;;;16.75;;
36353;SDS011;22383;51.114;13.666;2023-11-22T07:59:29;49.95;;;19.90;;
36353;SDS011;22383;51.114;13.666;2023-11-22T08:01:57;51.75;;;20.40;;
36353;SDS011;22383;51.114;13.666;2023-11-22T08:04:24;57.80;;;21.52;;
36353;SDS011;22383;51.114;13.666;2023-11-22T08:06:52;52.92;;;18.55;;
36353;SDS011;22383;51.114;13.666;2023-11-22T08:09:23;45.92;;;18.42;;
36353;SDS011;22383;51.114;13.666;2023-11-22T08:11:50;45.72;;;17.92;;
36353;SDS011;22383;51.114;13.666;2023-11-22T08:14:19;44.92;;;18.80;;
36353;SDS011;22383;51.114;13.666;2023-11-22T08:16:49;50.75;;;19.50;;
36353;SDS011;22383;51.114;13.666;2023-11-22T08:19:17;50.08;;;19.00;;
36353;SDS011;22383;51.114;13.666;2023-11-22T08:21:44;46.17;;;17.67;;
36353;SDS011;22383;51.114;13.666;2023-11-22T08:24:11;43.75;;;18.88;;
36353;SDS011;22383;51.114;13.666;2023-11-22T08:26:41;46.47;;;18.88;;
36353;SDS011;22383;51.114;13.666;2023-11-22T08:29:08;57.75;;;20.00;;
36353;SDS011;22383;51.114;13.666;2023-11-22T08:31:35;47.45;;;18.92;;
36353;SDS011;22383;51.114;13.666;2023-11-22T08:36:34;53.83;;;18.30;;
36353;SDS011;22383;51.114;13.666;2023-11-22T08:39:04;52.65;;;21.13;;
36353;SDS011;22383;51.114;13.666;2023-11-22T08:41:32;49.63;;;18.33;;
36353;SDS011;22383;51.114;13.666;2023-11-22T08:44:00;46.00;;;18.55;;
36353;SDS011;22383;51.114;13.666;2023-11-22T08:46:28;46.35;;;17.98;;
36353;SDS011;22383;51.114;13.666;2023-11-22T08:48:55;55.63;;;20.35;;
36353;SDS011;22383;51.114;13.666;2023-11-22T08:51:23;47.53;;;18.45;;
36353;SDS011;22383;51.114;13.666;2023-11-22T08:53:50;50.55;;;19.83;;
36353;SDS011;22383;51.114;13.666;2023-11-22T08:56:18;46.33;;;18.45;;
36353;SDS011;22383;51.114;13.666;2023-11-22T08:58:47;46.42;;;18.65;;
36353;SDS011;22383;51.114;13.666;2023-11-22T09:01:14;45.28;;;17.52;;
36353;SDS011;22383;51.114;13.666;2023-11-22T09:03:42;49.30;;;17.88;;
36353;SDS011;22383;51.114;13.666;2023-11-22T09:06:10;49.25;;;17.33;;
36353;SDS011;22383;51.114;13.666;2023-11-22T09:08:38;48.75;;;19.20;;
36353;SDS011;22383;51.114;13.666;2023-11-22T09:11:05;45.50;;;18.25;;
36353;SDS011;22383;51.114;13.666;2023-11-22T09:13:33;53.40;;;19.35;;
36353;SDS011;22383;51.114;13.666;2023-11-22T09:16:02;51.10;;;19.95;;
36353;SDS011;22383;51.114;13.666;2023-11-22T09:18:32;45.33;;;19.63;;
36353;SDS011;22383;51.114;13.666;2023-11-22T09:21:00;38.47;;;17.65;;
36353;SDS011;22383;51.114;13.666;2023-11-22T09:23:27;40.38;;;16.73;;
36353;SDS011;22383;51.114;13.666;2023-11-22T09:25:54;46.08;;;18.77;;
36353;SDS011;22383;51.114;13.666;2023-11-22T09:28:22;43.60;;;17.38;;
36353;SDS011;22383;51.114;13.666;2023-11-22T09:30:49;44.80;;;18.85;;
36353;SDS011;22383;51.114;13.666;2023-11-22T09:33:16;47.83;;;17.45;;
36353;SDS011;22383;51.114;13.666;2023-11-22T09:35:46;46.78;;;16.27;;
36353;SDS011;22383;51.114;13.666;2023-11-22T09:38:15;40.63;;;16.25;;
36353;SDS011;22383;51.114;13.666;2023-11-22T09:40:47;39.25;;;17.02;;
36353;SDS011;22383;51.114;13.666;2023-11-22T09:43:16;38.95;;;15.60;;
36353;SDS011;22383;51.114;13.666;2023-11-22T09:45:49;37.95;;;16.15;;
36353;SDS011;22383;51.114;13.666;2023-11-22T09:48:23;36.05;;;15.07;;
36353;SDS011;22383;51.114;13.666;2023-11-22T09:50:56;48.50;;;17.05;;
36353;SDS011;22383;51.114;13.666;2023-11-22T09:53:36;39.92;;;16.38;;
36353;SDS011;22383;51.114;13.666;2023-11-22T09:56:08;33.70;;;13.65;;
36353;SDS011;22383;51.114;13.666;2023-11-22T09:58:39;39.92;;;14.30;;
36353;SDS011;22383;51.114;13.666;2023-11-22T10:01:11;41.38;;;15.07;;
36353;SDS011;22383;51.114;13.666;2023-11-22T10:03:40;30.13;;;12.77;;
36353;SDS011;22383;51.114;13.666;2023-11-22T10:06:08;38.92;;;16.92;;
36353;SDS011;22383;51.114;13.666;2023-11-22T10:08:35;43.03;;;15.73;;
36353;SDS011;22383;51.114;13.666;2023-11-22T10:11:04;32.72;;;13.40;;
36353;SDS011;22383;51.114;13.666;2023-11-22T10:13:31;38.72;;;14.57;;
36353;SDS011;22383;51.114;13.666;2023-11-22T10:16:08;33.25;;;13.50;;
36353;SDS011;22383;51.114;13.666;2023-11-22T10:18:45;34.88;;;13.40;;
36353;SDS011;22383;51.114;13.666;2023-11-22T10:21:20;34.70;;;14.55;;
36353;SDS011;22383;51.114;13.666;2023-11-22T10:23:55;32.45;;;14.63;;
36353;SDS011;22383;51.114;13.666;2023-11-22T10:26:24;32.28;;;13.13;;
36353;SDS011;22383;51.114;13.666;2023-11-22T10:28:53;37.00;;;14.05;;
36353;SDS011;22383;51.114;13.666;2023-11-22T10:31:21;30.52;;;13.05;;
36353;SDS011;22383;51.114;13.666;2023-11-22T10:33:50;36.55;;;13.88;;
36353;SDS011;22383;51.114;13.666;2023-11-22T10:40:05;28.58;;;11.73;;
36353;SDS011;22383;51.114;13.666;2023-11-22T10:42:33;34.67;;;13.55;;
36353;SDS011;22383;51.114;13.666;2023-11-22T10:45:01;34.55;;;12.98;;
36353;SDS011;22383;51.114;13.666;2023-11-22T10:47:30;32.47;;;14.43;;
36353;SDS011;22383;51.114;13.666;2023-11-22T10:49:59;28.55;;;12.35;;
36353;SDS011;22383;51.114;13.666;2023-11-22T10:52:28;29.85;;;13.43;;
36353;SDS011;22383;51.114;13.666;2023-11-22T10:55:00;36.22;;;13.85;;
36353;SDS011;22383;51.114;13.666;2023-11-22T10:57:36;27.92;;;11.48;;
36353;SDS011;22383;51.114;13.666;2023-11-22T11:00:11;31.13;;;12.20;;
36353;SDS011;22383;51.114;13.666;2023-11-22T11:02:41;31.13;;;13.43;;
36353;SDS011;22383;51.114;13.666;2023-11-22T11:05:16;27.33;;;12.57;;
36353;SDS011;22383;51.114;13.666;2023-11-22T11:07:52;35.03;;;13.43;;
36353;SDS011;22383;51.114;13.666;2023-11-22T11:10:23;26.17;;;11.65;;
36353;SDS011;22383;51.114;13.666;2023-11-22T11:12:52;24.60;;;10.35;;
36353;SDS011;22383;51.114;13.666;2023-11-22T11:15:21;25.17;;;10.77;;
36353;SDS011;22383;51.114;13.666;2023-11-22T11:17:49;23.70;;;10.90;;
36353;SDS011;22383;51.114;13.666;2023-11-22T11:20:17;28.52;;;12.05;;
36353;SDS011;22383;51.114;13.666;2023-11-22T11:22:47;27.15;;;12.63;;
36353;SDS011;22383;51.114;13.666;2023-11-22T11:25:15;24.55;;;10.60;;
36353;SDS011;22383;51.114;13.666;2023-11-22T11:27:55;23.98;;;10.85;;
36353;SDS011;22383;51.114;13.666;2023-11-22T11:30:44;30.38;;;10.48;;
36353;SDS011;22383;51.114;13.666;2023-11-22T11:35:43;23.48;;;10.60;;
36353;SDS011;22383;51.114;13.666;2023-11-22T11:38:14;24.40;;;11.13;;
36353;SDS011;22383;51.114;13.666;2023-11-22T11:40:48;23.95;;;10.50;;
36353;SDS011;22383;51.114;13.666;2023-11-22T11:43:20;20.75;;;9.60;;
36353;SDS011;22383;51.114;13.666;2023-11-22T11:45:47;22.83;;;9.55;;
36353;SDS011;22383;51.114;13.666;2023-11-22T11:48:15;20.58;;;9.43;;
36353;SDS011;22383;51.114;13.666;2023-11-22T11:50:46;29.00;;;11.02;;
36353;SDS011;22383;51.114;13.666;2023-11-22T11:53:13;22.42;;;10.23;;
36353;SDS011;22383;51.114;13.666;2023-11-22T11:55:46;22.98;;;10.07;;
36353;SDS011;22383;51.114;13.666;2023-11-22T11:58:13;22.45;;;9.13;;
36353;SDS011;22383;51.114;13.666;2023-11-22T12:00:42;22.60;;;9.95;;
36353;SDS011;22383;51.114;13.666;2023-11-22T12:03:09;25.42;;;8.85;;
36353;SDS011;22383;51.114;13.666;2023-11-22T12:05:37;21.15;;;9.55;;
36353;SDS011;22383;51.114;13.666;2023-11-22T12:08:05;18.83;;;7.90;;
36353;SDS011;22383;51.114;13.666;2023-11-22T12:10:32;21.70;;;8.32;;
36353;SDS011;22383;51.114;13.666;2023-11-22T12:13:00;18.20;;;8.13;;
36353;SDS011;22383;51.114;13.666;2023-11-22T12:15:27;16.52;;;8.02;;
36353;SDS011;22383;51.114;13.666;2023-11-22T12:17:56;23.80;;;9.63;;
36353;SDS011;22383;51.114;13.666;2023-11-22T12:20:25;19.60;;;9.00;;
36353;SDS011;22383;51.114;13.666;2023-11-22T12:22:58;21.50;;;8.95;;
36353;SDS011;22383;51.114;13.666;2023-11-22T12:25:28;18.55;;;8.57;;
36353;SDS011;22383;51.114;13.666;2023-11-22T12:27:56;17.50;;;7.95;;
36353;SDS011;22383;51.114;13.666;2023-11-22T12:33:04;18.73;;;7.97;;
36353;SDS011;22383;51.114;13.666;2023-11-22T12:35:34;22.77;;;8.98;;
36353;SDS011;22383;51.114;13.666;2023-11-22T12:38:04;22.35;;;8.98;;
36353;SDS011;22383;51.114;13.666;2023-11-22T12:40:36;16.45;;;8.23;;
36353;SDS011;22383;51.114;13.666;2023-11-22T12:43:03;19.02;;;8.25;;
36353;SDS011;22383;51.114;13.666;2023-11-22T12:45:30;16.25;;;7.47;;
36353;SDS011;22383;51.114;13.666;2023-11-22T12:48:22;19.83;;;8.38;;
36353;SDS011;22383;51.114;13.666;2023-11-22T12:50:51;17.23;;;7.70;;
36353;SDS011;22383;51.114;13.666;2023-11-22T12:53:19;19.92;;;8.52;;
36353;SDS011;22383;51.114;13.666;2023-11-22T12:55:50;20.88;;;8.32;;
36353;SDS011;22383;51.114;13.666;2023-11-22T12:58:18;16.30;;;8.00;;
36353;SDS011;22383;51.114;13.666;2023-11-22T13:00:47;21.85;;;8.23;;
36353;SDS011;22383;51.114;13.666;2023-11-22T13:03:16;18.15;;;7.97;;
36353;SDS011;22383;51.114;13.666;2023-11-22T13:05:44;20.60;;;9.32;;
36353;SDS011;22383;51.114;13.666;2023-11-22T13:08:12;17.98;;;8.00;;
36353;SDS011;22383;51.114;13.666;2023-11-22T13:10:40;18.00;;;8.60;;
36353;SDS011;22383;51.114;13.666;2023-11-22T13:13:11;18.88;;;8.38;;
36353;SDS011;22383;51.114;13.666;2023-11-22T13:15:39;24.88;;;9.43;;
36353;SDS011;22383;51.114;13.666;2023-11-22T13:18:07;19.40;;;8.10;;
36353;SDS011;22383;51.114;13.666;2023-11-22T13:20:35;14.48;;;7.80;;
36353;SDS011;22383;51.114;13.666;2023-11-22T13:23:06;15.32;;;7.47;;
36353;SDS011;22383;51.114;13.666;2023-11-22T13:25:34;18.40;;;8.32;;
36353;SDS011;22383;51.114;13.666;2023-11-22T13:28:02;18.35;;;8.77;;
36353;SDS011;22383;51.114;13.666;2023-11-22T13:30:31;14.75;;;7.93;;
36353;SDS011;22383;51.114;13.666;2023-11-22T13:35:27;20.52;;;8.73;;
36353;SDS011;22383;51.114;13.666;2023-11-22T13:37:58;18.83;;;9.02;;
36353;SDS011;22383;51.114;13.666;2023-11-22T13:42:57;17.00;;;8.00;;
36353;SDS011;22383;51.114;13.666;2023-11-22T13:45:24;19.58;;;8.50;;
36353;SDS011;22383;51.114;13.666;2023-11-22T13:47:54;18.95;;;8.95;;
36353;SDS011;22383;51.114;13.666;2023-11-22T13:50:27;18.48;;;8.45;;
36353;SDS011;22383;51.114;13.666;2023-11-22T13:52:55;19.50;;;8.45;;
36353;SDS011;22383;51.114;13.666;2023-11-22T13:55:23;16.73;;;8.93;;
36353;SDS011;22383;51.114;13.666;2023-11-22T14:00:19;17.33;;;8.32;;
36353;SDS011;22383;51.114;13.666;2023-11-22T14:02:50;18.30;;;8.77;;
36353;SDS011;22383;51.114;13.666;2023-11-22T14:05:24;19.80;;;8.18;;
36353;SDS011;22383;51.114;13.666;2023-11-22T14:07:56;17.48;;;8.27;;
36353;SDS011;22383;51.114;13.666;2023-11-22T14:10:23;20.80;;;8.85;;
36353;SDS011;22383;51.114;13.666;2023-11-22T14:12:51;18.35;;;7.72;;
36353;SDS011;22383;51.114;13.666;2023-11-22T14:15:18;21.92;;;9.73;;
36353;SDS011;22383;51.114;13.666;2023-11-22T14:17:46;26.10;;;10.82;;
36353;SDS011;22383;51.114;13.666;2023-11-22T14:20:16;21.92;;;8.77;;
36353;SDS011;22383;51.114;13.666;2023-11-22T14:22:44;18.15;;;9.10;;
36353;SDS011;22383;51.114;13.666;2023-11-22T14:25:11;24.10;;;10.40;;
36353;SDS011;22383;51.114;13.666;2023-11-22T14:27:43;24.23;;;9.80;;
36353;SDS011;22383;51.114;13.666;2023-11-22T14:30:11;30.98;;;10.85;;
36353;SDS011;22383;51.114;13.666;2023-11-22T14:32:42;18.00;;;8.98;;
36353;SDS011;22383;51.114;13.666;2023-11-22T14:35:10;26.13;;;11.30;;
36353;SDS011;22383;51.114;13.666;2023-11-22T14:37:38;23.27;;;9.70;;
36353;SDS011;22383;51.114;13.666;2023-11-22T14:40:07;23.13;;;9.13;;
36353;SDS011;22383;51.114;13.666;2023-11-22T14:42:41;20.33;;;7.85;;
36353;SDS011;22383;51.114;13.666;2023-11-22T14:45:09;21.40;;;9.02;;
36353;SDS011;22383;51.114;13.666;2023-11-22T14:47:38;22.02;;;9.85;;
36353;SDS011;22383;51.114;13.666;2023-11-22T14:50:07;23.02;;;9.95;;
36353;SDS011;22383;51.114;13.666;2023-11-22T14:52:38;19.77;;;10.52;;
36353;SDS011;22383;51.114;13.666;2023-11-22T14:55:06;23.98;;;10.27;;
36353;SDS011;22383;51.114;13.666;2023-11-22T14:57:36;22.90;;;10.07;;
36353;SDS011;22383;51.114;13.666;2023-11-22T15:00:07;20.75;;;9.35;;
36353;SDS011;22383;51.114;13.666;2023-11-22T15:02:37;23.80;;;11.10;;
36353;SDS011;22383;51.114;13.666;2023-11-22T15:05:04;23.67;;;10.95;;